Time;durP1;ratioP1;P1;durP2;ratioP2;P2;SDS_P1;SDS_P2;PMS_P1;PMS_P2;Temp;Humidity;BMP_temperature;BMP_pressure;BME280_temperature;BME280_humidity;BME280_pressure;Samples;Min_cycle;Max_cycle;Signal;HPM_P1;HPM_P2
2023/03/02 00:02:04;;;;;;;160.38;78.95;;;-0.80;60.90;;;;;;4985680;28;115662;-79
2023/03/02 00:04:36;;;;;;;179.05;83.57;;;-0.70;60.90;;;;;;4985055;28;115471;-79
2023/03/02 00:07:06;;;;;;;181.93;83.85;;;-0.80;60.60;;;;;;4978461;28;114805;-79
2023/03/02 00:09:34;;;;;;;175.15;82.40;;;-0.90;60.60;;;;;;4949333;28;114895;-79
2023/03/02 00:12:01;;;;;;;182.80;86.43;;;-0.90;60.60;;;;;;4982171;28;115089;-79
2023/03/02 00:14:29;;;;;;;185.35;87.90;;;-0.90;60.70;;;;;;4965087;28;114690;-79
2023/03/02 00:16:56;;;;;;;184.40;85.47;;;-1.00;60.80;;;;;;4985320;28;114871;-79
2023/03/02 00:19:23;;;;;;;156.68;74.95;;;-1.00;60.90;;;;;;5001450;28;115382;-79
2023/03/02 00:21:50;;;;;;;145.80;71.55;;;-1.00;60.90;;;;;;4984499;28;115110;-79
2023/03/02 00:24:18;;;;;;;151.68;73.60;;;-1.00;60.70;;;;;;4968054;28;114717;-79
2023/03/02 00:26:45;;;;;;;139.60;74.60;;;-1.10;60.70;;;;;;4961045;28;116542;-80
2023/03/02 00:29:12;;;;;;;146.10;73.43;;;-1.10;60.80;;;;;;4985035;28;114558;-77
2023/03/02 00:31:40;;;;;;;159.80;77.90;;;-1.20;61.00;;;;;;4983507;28;118297;-77
2023/03/02 00:34:07;;;;;;;165.80;79.47;;;-1.10;61.10;;;;;;4984410;28;114670;-77
2023/03/02 00:36:34;;;;;;;187.05;91.50;;;-1.20;61.10;;;;;;4984670;28;115590;-77
2023/03/02 00:39:03;;;;;;;188.98;88.15;;;-1.20;61.10;;;;;;5001934;28;114397;-77
2023/03/02 00:41:30;;;;;;;193.20;92.75;;;-1.20;61.10;;;;;;4936113;28;118437;-76
2023/03/02 00:43:57;;;;;;;195.40;93.72;;;-1.20;61.10;;;;;;4982638;28;114760;-79
2023/03/02 00:46:24;;;;;;;198.13;99.63;;;-1.20;61.10;;;;;;4983635;28;114722;-79
2023/03/02 00:48:54;;;;;;;197.40;94.43;;;-1.10;61.20;;;;;;4968820;28;114521;-79
2023/03/02 00:51:24;;;;;;;192.73;92.88;;;-1.20;61.20;;;;;;4997675;28;115232;-79
2023/03/02 00:53:53;;;;;;;206.57;95.32;;;-1.20;61.30;;;;;;4984180;28;116008;-80
2023/03/02 00:56:20;;;;;;;206.68;97.10;;;-1.10;61.20;;;;;;4984039;28;116162;-79
2023/03/02 00:58:50;;;;;;;193.07;93.30;;;-1.10;61.20;;;;;;4968088;28;114825;-79
2023/03/02 01:01:18;;;;;;;183.75;90.30;;;-1.10;61.20;;;;;;4967680;28;115392;-79
2023/03/02 01:03:49;;;;;;;184.07;89.15;;;-1.20;61.20;;;;;;4983846;28;114682;-79
2023/03/02 01:06:19;;;;;;;188.07;90.55;;;-1.10;61.20;;;;;;4967995;28;114773;-78
2023/03/02 01:08:46;;;;;;;190.93;90.65;;;-1.20;61.20;;;;;;5002568;28;114444;-79
2023/03/02 01:11:19;;;;;;;182.07;90.63;;;-1.20;61.20;;;;;;4983405;28;116504;-79
2023/03/02 01:13:46;;;;;;;186.48;88.50;;;-1.20;61.30;;;;;;4968231;28;114812;-79
2023/03/02 01:16:13;;;;;;;191.27;93.00;;;-1.20;61.20;;;;;;4984127;28;114501;-77
2023/03/02 01:18:41;;;;;;;182.68;90.28;;;-1.20;61.30;;;;;;4984582;28;114687;-76
2023/03/02 01:21:12;;;;;;;174.57;83.97;;;-1.30;61.20;;;;;;5000702;28;115625;-78
2023/03/02 01:23:40;;;;;;;185.60;86.40;;;-1.30;61.10;;;;;;4967878;28;115228;-78
2023/03/02 01:26:07;;;;;;;178.02;83.00;;;-1.30;61.10;;;;;;5002106;28;114330;-78
2023/03/02 01:28:34;;;;;;;167.55;82.38;;;-1.40;61.10;;;;;;4929561;28;114771;-78
2023/03/02 01:31:03;;;;;;;169.68;83.15;;;-1.40;61.10;;;;;;4964278;28;117426;-78
2023/03/02 01:33:31;;;;;;;166.23;82.30;;;-1.40;61.20;;;;;;5000945;28;114768;-78
2023/03/02 01:35:58;;;;;;;160.10;78.88;;;-1.50;61.20;;;;;;4984621;28;114704;-78
2023/03/02 01:38:28;;;;;;;175.80;87.32;;;-1.50;61.20;;;;;;4984592;28;114368;-78
2023/03/02 01:40:55;;;;;;;177.98;86.15;;;-1.60;61.30;;;;;;4981983;28;115057;-79
2023/03/02 01:43:22;;;;;;;188.55;90.18;;;-1.70;61.40;;;;;;4950068;28;114770;-78
2023/03/02 01:46:03;;;;;;;186.05;85.25;;;-1.70;61.40;;;;;;4931834;28;114803;-78
2023/03/02 01:48:51;;;;;;;171.88;81.18;;;-1.70;61.50;;;;;;4953451;28;114688;-77
2023/03/02 01:51:27;;;;;;;174.98;80.10;;;-1.80;61.50;;;;;;4935760;28;115867;-78
2023/03/02 01:54:05;;;;;;;167.20;76.72;;;-1.90;61.60;;;;;;4965978;28;114782;-78
2023/03/02 01:56:35;;;;;;;183.35;83.80;;;-1.80;61.80;;;;;;4937793;28;114689;-78
2023/03/02 01:59:10;;;;;;;183.73;83.32;;;-1.80;61.80;;;;;;4925688;28;116077;-78
2023/03/02 02:01:39;;;;;;;177.40;85.53;;;-1.80;61.90;;;;;;4982470;28;115356;-78
2023/03/02 02:04:10;;;;;;;191.65;84.72;;;-1.90;61.80;;;;;;4966947;28;115182;-79
2023/03/02 02:06:47;;;;;;;177.20;83.97;;;-1.80;61.70;;;;;;4966094;28;116519;-79
2023/03/02 02:09:17;;;;;;;175.88;83.68;;;-1.90;61.80;;;;;;4966520;28;115503;-79
2023/03/02 02:11:44;;;;;;;185.85;85.38;;;-1.90;61.90;;;;;;4962538;28;115767;-78
2023/03/02 02:14:12;;;;;;;183.90;85.40;;;-1.90;61.90;;;;;;4982160;28;114877;-78
2023/03/02 02:16:39;;;;;;;171.82;82.15;;;-1.90;62.00;;;;;;4982658;28;116665;-78
2023/03/02 02:19:59;;;;;;;180.73;82.38;;;-1.90;62.20;;;;;;4983578;28;115939;-78
2023/03/02 02:23:03;;;;;;;158.15;73.03;;;-1.90;62.40;;;;;;4993368;28;115079;-78
2023/03/02 02:25:51;;;;;;;143.30;69.80;;;-1.90;62.30;;;;;;4981898;28;114978;-78
2023/03/02 02:28:27;;;;;;;149.80;69.15;;;-1.90;62.00;;;;;;4971897;28;114454;-77
2023/03/02 02:31:34;;;;;;;151.90;73.57;;;-1.90;62.00;;;;;;4947253;28;114440;-78
2023/03/02 02:34:48;;;;;;;151.18;70.93;;;-2.00;62.20;;;;;;4947077;28;115087;-78
2023/03/02 02:37:23;;;;;;;146.13;68.20;;;-2.00;62.30;;;;;;4969210;28;117248;-78
2023/03/02 02:39:50;;;;;;;148.60;72.07;;;-2.00;62.20;;;;;;4962973;28;114832;-78
2023/03/02 02:42:29;;;;;;;151.52;71.75;;;-2.10;62.10;;;;;;4930972;28;114790;-78
2023/03/02 02:45:00;;;;;;;148.55;75.43;;;-2.00;62.20;;;;;;4962285;28;115422;-78
2023/03/02 02:47:27;;;;;;;149.90;72.55;;;-2.10;62.00;;;;;;4945833;28;115212;-78
2023/03/02 02:49:55;;;;;;;161.15;74.47;;;-2.20;61.90;;;;;;4930714;28;116854;-78
2023/03/02 02:52:25;;;;;;;152.15;74.15;;;-2.30;62.10;;;;;;4930622;28;114637;-78
2023/03/02 02:54:55;;;;;;;153.38;72.63;;;-2.30;62.20;;;;;;4962381;28;117208;-77
2023/03/02 02:57:25;;;;;;;150.02;70.93;;;-2.30;62.30;;;;;;4946294;28;118444;-78
2023/03/02 02:59:58;;;;;;;158.90;73.07;;;-2.30;62.40;;;;;;4943827;28;114758;-78
2023/03/02 03:02:29;;;;;;;156.95;73.22;;;-2.30;62.50;;;;;;4966343;28;114624;-77
2023/03/02 03:05:01;;;;;;;159.85;74.13;;;-2.30;62.30;;;;;;4965099;28;115162;-78
2023/03/02 03:07:30;;;;;;;159.85;71.82;;;-2.40;62.30;;;;;;4981692;28;114701;-78
2023/03/02 03:10:14;;;;;;;147.65;71.22;;;-2.30;62.30;;;;;;4984355;28;114609;-78
2023/03/02 03:12:42;;;;;;;152.25;71.88;;;-2.40;62.50;;;;;;4967442;28;115667;-77
2023/03/02 03:15:10;;;;;;;157.68;72.43;;;-2.40;62.50;;;;;;4969829;28;116469;-78
2023/03/02 03:17:37;;;;;;;169.13;73.15;;;-2.40;62.50;;;;;;4952872;28;114698;-78
2023/03/02 03:20:07;;;;;;;151.02;71.88;;;-2.30;62.50;;;;;;4986514;28;114529;-78
2023/03/02 03:22:38;;;;;;;172.32;77.93;;;-2.30;62.60;;;;;;4967029;28;114677;-78
2023/03/02 03:25:08;;;;;;;161.88;76.63;;;-2.30;62.60;;;;;;4985817;28;115242;-78
2023/03/02 03:27:35;;;;;;;138.48;65.18;;;-2.30;62.70;;;;;;4985308;28;114605;-78
2023/03/02 03:30:05;;;;;;;131.07;64.68;;;-2.30;62.60;;;;;;4984958;28;114722;-78
2023/03/02 03:32:34;;;;;;;128.23;61.25;;;-2.30;62.70;;;;;;4987953;28;114325;-77
2023/03/02 03:35:07;;;;;;;129.75;61.55;;;-2.30;62.70;;;;;;4986580;28;115282;-78
2023/03/02 03:37:34;;;;;;;127.47;61.25;;;-2.30;62.60;;;;;;4970283;28;114755;-78
2023/03/02 03:40:02;;;;;;;126.68;56.78;;;-2.30;62.60;;;;;;4970824;28;114363;-78
2023/03/02 03:42:31;;;;;;;131.05;61.33;;;-2.30;62.40;;;;;;5004738;28;114469;-77
2023/03/02 03:45:00;;;;;;;122.60;57.60;;;-2.30;62.40;;;;;;4947765;28;115542;-78
2023/03/02 03:47:27;;;;;;;128.10;61.88;;;-2.30;62.50;;;;;;4983763;28;114790;-78
2023/03/02 03:49:54;;;;;;;125.32;64.25;;;-2.30;62.40;;;;;;4934799;28;114563;-78
2023/03/02 03:52:29;;;;;;;141.93;67.32;;;-2.30;62.40;;;;;;4941244;28;116942;-79
2023/03/02 03:55:05;;;;;;;133.75;64.85;;;-2.40;62.30;;;;;;4933922;28;117046;-78
2023/03/02 03:57:32;;;;;;;134.60;63.85;;;-2.40;62.20;;;;;;4964694;28;114711;-78
2023/03/02 04:00:00;;;;;;;138.98;63.67;;;-2.50;62.20;;;;;;4949785;28;114846;-78
2023/03/02 04:02:28;;;;;;;135.98;63.85;;;-2.50;62.10;;;;;;4966180;28;114362;-78
2023/03/02 04:04:55;;;;;;;145.95;66.03;;;-2.60;62.20;;;;;;4982971;28;115147;-77
2023/03/02 04:07:22;;;;;;;128.23;57.75;;;-2.60;62.20;;;;;;4981351;28;117702;-78
2023/03/02 04:10:02;;;;;;;129.35;60.90;;;-2.60;62.40;;;;;;4949116;28;114651;-78
2023/03/02 04:12:33;;;;;;;126.15;59.83;;;-2.60;62.50;;;;;;4949940;28;114560;-77
2023/03/02 04:15:00;;;;;;;132.57;62.17;;;-2.60;62.50;;;;;;4931099;28;115226;-78
2023/03/02 04:17:28;;;;;;;137.13;63.05;;;-2.60;62.50;;;;;;4932542;28;114722;-78
2023/03/02 04:19:55;;;;;;;136.15;64.47;;;-2.60;62.40;;;;;;4964992;28;114731;-78
2023/03/02 04:22:22;;;;;;;123.78;57.28;;;-2.50;62.60;;;;;;4965677;28;117868;-77
2023/03/02 04:24:50;;;;;;;116.93;55.53;;;-2.50;62.50;;;;;;4984070;28;117059;-78
2023/03/02 04:27:18;;;;;;;142.63;65.85;;;-2.50;62.40;;;;;;4965844;28;117908;-77
2023/03/02 04:29:46;;;;;;;133.75;62.20;;;-2.60;62.50;;;;;;4936440;28;114740;-78
2023/03/02 04:32:16;;;;;;;138.10;68.50;;;-2.60;62.50;;;;;;4952872;28;114592;-78
2023/03/02 04:34:48;;;;;;;130.98;66.43;;;-2.60;62.50;;;;;;4969179;28;115141;-78
2023/03/02 04:37:15;;;;;;;135.23;64.68;;;-2.50;62.50;;;;;;5000722;28;114753;-78
2023/03/02 04:39:46;;;;;;;135.70;66.90;;;-2.60;62.50;;;;;;4965028;28;114760;-78
2023/03/02 04:42:13;;;;;;;135.18;64.57;;;-2.50;62.50;;;;;;4983607;28;114374;-78
2023/03/02 04:44:40;;;;;;;143.88;64.60;;;-2.60;62.50;;;;;;4980991;28;115462;-78
2023/03/02 04:47:09;;;;;;;132.68;64.85;;;-2.60;62.60;;;;;;4977222;28;115282;-78
2023/03/02 04:49:36;;;;;;;134.38;61.53;;;-2.60;62.50;;;;;;4985750;28;114831;-78
2023/03/02 04:52:03;;;;;;;136.85;64.57;;;-2.50;62.40;;;;;;5003092;28;118244;-78
2023/03/02 04:54:31;;;;;;;134.38;64.03;;;-2.60;62.30;;;;;;5002179;28;115295;-78
2023/03/02 04:56:58;;;;;;;138.68;63.60;;;-2.60;62.30;;;;;;5002148;28;114681;-78
2023/03/02 04:59:26;;;;;;;136.93;65.53;;;-2.60;62.10;;;;;;4966886;28;114735;-77
2023/03/02 05:01:56;;;;;;;135.00;64.95;;;-2.70;62.20;;;;;;5003508;28;115246;-78
2023/03/02 05:04:23;;;;;;;132.38;61.75;;;-2.70;62.20;;;;;;4967412;28;117974;-78
2023/03/02 05:06:50;;;;;;;139.13;64.35;;;-2.70;62.30;;;;;;4966254;28;114768;-78
2023/03/02 05:09:18;;;;;;;139.07;64.28;;;-2.70;62.30;;;;;;4982761;28;114718;-78
2023/03/02 05:11:45;;;;;;;137.63;69.45;;;-2.70;62.30;;;;;;4948032;28;114583;-79
2023/03/02 05:14:12;;;;;;;145.55;66.85;;;-2.70;62.30;;;;;;4963431;28;115123;-78
2023/03/02 05:16:41;;;;;;;140.68;66.47;;;-2.70;62.30;;;;;;4997594;28;115439;-78
2023/03/02 05:19:11;;;;;;;140.98;62.75;;;-2.70;62.20;;;;;;5002220;28;114455;-79
2023/03/02 05:21:39;;;;;;;142.95;63.70;;;-2.70;62.20;;;;;;4985249;28;114602;-78
2023/03/02 05:24:06;;;;;;;131.10;63.30;;;-2.80;62.20;;;;;;4967306;28;115109;-78
2023/03/02 05:26:33;;;;;;;124.57;62.08;;;-2.80;62.20;;;;;;4982635;28;114896;-78
2023/03/02 05:29:01;;;;;;;125.65;58.90;;;-2.80;62.30;;;;;;4932972;28;114707;-78
2023/03/02 05:31:33;;;;;;;132.70;58.90;;;-2.70;62.30;;;;;;4963988;28;114677;-78
2023/03/02 05:34:05;;;;;;;129.35;59.53;;;-2.80;62.20;;;;;;4980876;28;115125;-78
2023/03/02 05:36:32;;;;;;;133.13;62.60;;;-2.80;62.20;;;;;;4931738;28;117588;-78
2023/03/02 05:39:00;;;;;;;146.20;64.85;;;-2.90;62.20;;;;;;4930892;28;114565;-79
2023/03/02 05:41:27;;;;;;;153.10;71.10;;;-2.90;62.30;;;;;;4964410;28;114988;-78
2023/03/02 05:43:55;;;;;;;138.40;65.57;;;-2.90;62.40;;;;;;4963460;28;115018;-79
2023/03/02 05:46:22;;;;;;;144.80;65.03;;;-2.90;62.70;;;;;;4966562;28;115956;-78
2023/03/02 05:48:49;;;;;;;147.60;66.45;;;-2.80;62.80;;;;;;4984116;28;114858;-79
2023/03/02 05:51:17;;;;;;;149.77;68.90;;;-2.70;62.90;;;;;;4984325;28;114691;-78
2023/03/02 05:53:44;;;;;;;131.88;62.92;;;-2.70;63.10;;;;;;4966100;28;116432;-79
2023/03/02 05:56:12;;;;;;;139.73;64.80;;;-2.70;63.10;;;;;;4950501;28;116552;-79
2023/03/02 05:58:39;;;;;;;146.13;70.20;;;-2.60;63.00;;;;;;4950598;28;114734;-79
2023/03/02 06:01:10;;;;;;;148.73;71.68;;;-2.60;62.90;;;;;;4983404;28;114928;-79
2023/03/02 06:03:42;;;;;;;151.85;72.22;;;-2.40;62.90;;;;;;4952000;28;115132;-76
2023/03/02 06:06:12;;;;;;;150.05;71.40;;;-2.30;62.90;;;;;;5000419;28;114527;-78
2023/03/02 06:08:41;;;;;;;143.00;68.40;;;-2.20;62.90;;;;;;4983616;28;114443;-78
2023/03/02 06:11:09;;;;;;;139.95;68.40;;;-2.00;62.50;;;;;;4965987;28;114343;-80
2023/03/02 06:13:36;;;;;;;142.85;66.75;;;-1.90;62.40;;;;;;4949350;28;117467;-78
2023/03/02 06:16:04;;;;;;;128.75;63.65;;;-1.80;62.10;;;;;;5000618;28;114750;-78
2023/03/02 06:18:32;;;;;;;131.07;66.55;;;-1.60;61.90;;;;;;4980988;28;114765;-79
2023/03/02 06:21:00;;;;;;;130.57;65.18;;;-1.50;61.80;;;;;;4915708;28;114597;-80
2023/03/02 06:23:28;;;;;;;131.05;65.97;;;-1.40;61.70;;;;;;4913738;28;118006;-78
2023/03/02 06:25:56;;;;;;;129.45;63.83;;;-1.30;61.40;;;;;;4946173;28;117437;-78
2023/03/02 06:28:24;;;;;;;126.68;63.10;;;-1.20;61.10;;;;;;4963700;28;114321;-78
2023/03/02 06:30:51;;;;;;;128.75;65.40;;;-1.10;60.90;;;;;;4963419;28;114683;-78
2023/03/02 06:33:22;;;;;;;117.22;60.75;;;-1.10;60.80;;;;;;4962372;28;115717;-79
2023/03/02 06:35:49;;;;;;;115.10;59.55;;;-0.90;60.80;;;;;;4997125;28;115275;-77
2023/03/02 06:38:16;;;;;;;115.22;57.20;;;-0.80;60.70;;;;;;4946356;28;114798;-79
2023/03/02 06:40:43;;;;;;;117.45;58.72;;;-0.80;60.40;;;;;;4980992;28;114537;-77
2023/03/02 06:43:11;;;;;;;121.07;59.67;;;-0.60;60.40;;;;;;4930161;28;116667;-78
2023/03/02 06:45:38;;;;;;;120.85;60.47;;;-0.50;60.10;;;;;;4999315;28;114740;-78
2023/03/02 06:48:06;;;;;;;117.20;59.67;;;-0.40;60.10;;;;;;4952512;28;114511;-78
2023/03/02 06:50:33;;;;;;;108.68;55.75;;;-0.30;60.00;;;;;;4969994;28;115608;-78
2023/03/02 06:53:00;;;;;;;107.25;55.40;;;-0.30;59.80;;;;;;5003325;28;115087;-78
2023/03/02 06:55:27;;;;;;;114.78;58.35;;;-0.20;59.60;;;;;;4969217;28;118064;-78
2023/03/02 06:57:55;;;;;;;110.95;57.88;;;-0.10;59.60;;;;;;4984536;28;114545;-78
2023/03/02 07:00:26;;;;;;;117.90;60.15;;;0.00;59.50;;;;;;5003562;28;118410;-79
2023/03/02 07:02:54;;;;;;;119.32;59.45;;;0.10;59.40;;;;;;5000059;28;115065;-79
2023/03/02 07:05:23;;;;;;;119.55;60.53;;;0.20;59.30;;;;;;5003647;28;114663;-77
2023/03/02 07:07:50;;;;;;;121.07;59.55;;;0.30;59.10;;;;;;4985788;28;114386;-78
2023/03/02 07:10:17;;;;;;;117.22;60.00;;;0.40;59.10;;;;;;4968276;28;114850;-78
2023/03/02 07:15:53;;;;;;;116.80;63.47;;;0.50;58.70;;;;;;4953216;28;117605;-77
2023/03/02 07:18:20;;;;;;;127.50;64.55;;;0.60;58.60;;;;;;4984372;28;114773;-77
2023/03/02 07:20:48;;;;;;;123.30;63.58;;;0.70;58.50;;;;;;4984369;28;114381;-78
2023/03/02 07:23:15;;;;;;;134.38;69.85;;;0.80;58.30;;;;;;4965714;28;115070;-78
2023/03/02 07:25:42;;;;;;;121.35;66.72;;;0.90;58.20;;;;;;4983348;28;116046;-78
2023/03/02 07:28:12;;;;;;;133.77;71.70;;;1.00;58.10;;;;;;4984258;28;114565;-78
2023/03/02 07:30:39;;;;;;;134.00;69.55;;;1.20;58.00;;;;;;4951114;28;114552;-78
2023/03/02 07:33:06;;;;;;;136.90;70.50;;;1.20;57.90;;;;;;4965268;28;115163;-78
2023/03/02 07:35:33;;;;;;;146.02;74.82;;;1.30;57.80;;;;;;4983406;28;115237;-78
2023/03/02 07:38:00;;;;;;;145.45;74.93;;;1.40;57.70;;;;;;4949801;28;114883;-78
2023/03/02 07:40:28;;;;;;;161.82;80.68;;;1.50;57.50;;;;;;4966448;28;114774;-78
2023/03/02 07:42:55;;;;;;;159.55;80.43;;;1.60;57.30;;;;;;4964747;28;115740;-78
2023/03/02 07:45:23;;;;;;;162.70;85.80;;;1.70;57.30;;;;;;4983157;28;114832;-78
2023/03/02 07:47:51;;;;;;;156.15;80.75;;;1.80;57.10;;;;;;4983832;28;114618;-79
2023/03/02 07:50:18;;;;;;;162.95;85.35;;;1.80;57.00;;;;;;4949560;28;114783;-78
2023/03/02 07:52:45;;;;;;;171.68;84.97;;;1.90;56.80;;;;;;4993036;28;115083;-79
2023/03/02 07:55:12;;;;;;;165.65;83.28;;;2.10;56.80;;;;;;4953595;28;118297;-78
2023/03/02 07:57:43;;;;;;;165.75;86.15;;;2.20;56.70;;;;;;4997118;28;114603;-78
2023/03/02 08:00:11;;;;;;;169.93;87.13;;;2.20;56.50;;;;;;4992326;28;114603;-79
2023/03/02 08:02:39;;;;;;;167.18;88.85;;;2.30;56.30;;;;;;4968077;28;116955;-80
2023/03/02 08:05:08;;;;;;;161.43;86.47;;;2.50;56.20;;;;;;4968963;28;114569;-79
2023/03/02 08:07:42;;;;;;;173.25;93.65;;;2.50;55.80;;;;;;4949396;28;115421;-79
2023/03/02 08:10:10;;;;;;;168.02;88.07;;;2.60;55.80;;;;;;4930463;28;114512;-79
2023/03/02 08:12:38;;;;;;;162.70;85.97;;;2.60;55.50;;;;;;4980995;28;115360;-79
2023/03/02 08:15:06;;;;;;;162.10;84.15;;;2.70;55.50;;;;;;4983436;28;114681;-80
2023/03/02 08:17:33;;;;;;;171.60;89.57;;;2.80;55.50;;;;;;4973156;28;114464;-79
2023/03/02 08:20:00;;;;;;;167.57;89.25;;;2.90;55.10;;;;;;4940144;28;115202;-79
2023/03/02 08:22:28;;;;;;;171.85;92.82;;;3.00;55.10;;;;;;4940779;28;115740;-80
2023/03/02 08:24:55;;;;;;;170.60;87.13;;;3.10;54.90;;;;;;4991999;28;115266;-79
2023/03/02 08:27:30;;;;;;;163.48;89.82;;;3.20;55.00;;;;;;4994959;28;114348;-79
2023/03/02 08:29:59;;;;;;;161.68;84.60;;;3.20;54.90;;;;;;5000482;28;116957;-77
2023/03/02 08:32:31;;;;;;;153.50;85.47;;;3.30;54.60;;;;;;4984529;28;115224;-79
2023/03/02 08:35:05;;;;;;;147.20;81.63;;;3.40;54.70;;;;;;4961133;28;115428;-79
2023/03/02 08:37:33;;;;;;;151.80;83.60;;;3.50;54.70;;;;;;4997583;28;116692;-80
2023/03/02 08:40:00;;;;;;;152.43;82.28;;;3.60;54.40;;;;;;4990086;28;114658;-79
2023/03/02 08:42:31;;;;;;;142.35;78.70;;;3.70;54.20;;;;;;5002886;28;115261;-78
2023/03/02 08:44:58;;;;;;;147.40;80.85;;;3.90;53.60;;;;;;4954984;28;114629;-79
2023/03/02 08:47:28;;;;;;;146.95;78.50;;;3.90;53.50;;;;;;4949382;28;114426;-80
2023/03/02 08:49:58;;;;;;;149.50;78.80;;;4.00;53.30;;;;;;5001638;28;116083;-78
2023/03/02 08:52:25;;;;;;;144.32;80.57;;;4.10;53.00;;;;;;4956580;28;116101;-78
2023/03/02 08:54:56;;;;;;;148.88;80.72;;;4.10;53.00;;;;;;4963377;28;114858;-79
2023/03/02 08:57:25;;;;;;;132.82;74.43;;;4.20;52.70;;;;;;4982991;28;114616;-79
2023/03/02 08:59:53;;;;;;;125.40;68.18;;;4.30;52.10;;;;;;4965454;28;114824;-79
2023/03/02 09:02:21;;;;;;;132.23;72.05;;;4.20;52.00;;;;;;4965210;28;115118;-78
2023/03/02 09:04:49;;;;;;;128.65;67.47;;;4.30;51.30;;;;;;4982491;28;115752;-79
2023/03/02 09:07:16;;;;;;;129.70;66.53;;;4.30;51.50;;;;;;4963997;28;114419;-80
2023/03/02 09:09:43;;;;;;;128.07;71.03;;;4.30;51.70;;;;;;4965409;28;114548;-80
2023/03/02 09:12:13;;;;;;;141.88;78.22;;;4.30;51.60;;;;;;4997300;28;117021;-80
2023/03/02 09:14:40;;;;;;;139.57;75.70;;;4.40;51.70;;;;;;4981232;28;116555;-78
2023/03/02 09:17:14;;;;;;;146.45;81.72;;;4.50;51.70;;;;;;4960927;28;114916;-78
2023/03/02 09:19:42;;;;;;;149.65;81.72;;;4.60;51.90;;;;;;4929842;28;114452;-78
2023/03/02 09:22:11;;;;;;;154.18;83.60;;;4.70;51.80;;;;;;4960346;28;117990;-80
2023/03/02 09:24:39;;;;;;;147.18;83.28;;;4.80;51.70;;;;;;4944593;28;116950;-78
2023/03/02 09:27:09;;;;;;;153.93;85.45;;;4.80;51.40;;;;;;4930165;28;114676;-80
2023/03/02 09:29:36;;;;;;;163.52;89.80;;;4.80;51.40;;;;;;4946114;28;114599;-80
2023/03/02 09:32:04;;;;;;;160.52;91.78;;;4.90;51.40;;;;;;4943894;28;115036;-80
2023/03/02 09:34:58;;;;;;;161.02;93.93;;;5.00;51.50;;;;;;4959880;28;115354;-80
2023/03/02 09:37:29;;;;;;;171.50;95.53;;;5.10;51.60;;;;;;4946828;28;116959;-80
2023/03/02 09:39:56;;;;;;;180.52;101.13;;;5.10;51.40;;;;;;4960477;28;115003;-79
2023/03/02 09:43:02;;;;;;;170.65;97.95;;;5.10;51.70;;;;;;4908686;28;118115;-79
2023/03/02 09:46:07;;;;;;;177.50;100.65;;;5.20;51.60;;;;;;4909934;28;115419;-79
2023/03/02 09:49:15;;;;;;;163.33;92.10;;;5.20;51.50;;;;;;4974140;28;114599;-79
2023/03/02 09:51:53;;;;;;;163.93;91.70;;;5.30;51.20;;;;;;4979594;28;118655;-80
2023/03/02 09:54:42;;;;;;;161.45;92.50;;;5.20;51.00;;;;;;4968328;28;115344;-80
2023/03/02 09:57:27;;;;;;;139.63;85.22;;;5.20;51.00;;;;;;4972261;28;115768;-79
2023/03/02 10:00:21;;;;;;;138.88;81.97;;;5.20;50.90;;;;;;4964670;28;114776;-79
2023/03/02 10:02:52;;;;;;;116.72;67.00;;;5.20;50.60;;;;;;4956237;28;114663;-81
2023/03/02 10:06:00;;;;;;;109.05;61.88;;;5.20;50.60;;;;;;4983338;28;117414;-79
2023/03/02 10:08:29;;;;;;;113.03;63.17;;;5.20;49.80;;;;;;4988725;28;114999;-79
2023/03/02 10:11:22;;;;;;;112.05;61.75;;;5.00;49.90;;;;;;4933169;28;116893;-81
2023/03/02 10:14:20;;;;;;;112.30;63.42;;;4.80;49.40;;;;;;4935567;28;118199;-80
2023/03/02 10:17:51;;;;;;;108.93;60.75;;;4.70;50.10;;;;;;4955845;28;116773;-79
2023/03/02 10:20:30;;;;;;;106.10;58.78;;;4.60;50.30;;;;;;4947447;28;115035;-80
2023/03/02 10:23:31;;;;;;;100.72;59.67;;;4.60;50.40;;;;;;4981490;28;114484;-80
2023/03/02 10:26:26;;;;;;;105.40;59.85;;;4.70;50.20;;;;;;4981046;28;114755;-78
2023/03/02 10:29:25;;;;;;;;;;;4.70;50.40;;;;;;4946916;28;115014;-80
2023/03/02 10:32:03;;;;;;;105.85;60.10;;;4.60;51.10;;;;;;4989582;28;114735;-80
2023/03/02 10:34:30;;;;;;;106.85;62.00;;;4.60;50.80;;;;;;4955851;28;114812;-79
2023/03/02 10:36:58;;;;;;;107.47;61.85;;;4.70;50.40;;;;;;4948127;28;114744;-81
2023/03/02 10:39:25;;;;;;;104.25;60.92;;;4.70;50.10;;;;;;4965178;28;115436;-79
2023/03/02 10:42:03;;;;;;;103.18;59.47;;;4.70;50.30;;;;;;5001513;28;115674;-80
2023/03/02 10:44:40;;;;;;;104.45;60.28;;;4.80;49.90;;;;;;4947820;28;116668;-80
2023/03/02 10:47:25;;;;;;;97.88;55.38;;;4.80;49.80;;;;;;4939611;28;114491;-82
2023/03/02 10:49:56;;;;;;;96.53;56.65;;;4.80;49.70;;;;;;5000901;28;115449;-80
2023/03/02 10:52:38;;;;;;;93.45;56.63;;;4.80;49.70;;;;;;4966134;28;118411;-80
2023/03/02 10:55:13;;;;;;;91.80;55.40;;;4.90;49.80;;;;;;5001122;28;114779;-79
2023/03/02 10:57:44;;;;;;;92.78;54.50;;;5.00;49.40;;;;;;4956882;28;116812;-78
2023/03/02 11:00:25;;;;;;;87.97;50.70;;;5.10;49.40;;;;;;4946247;28;115134;-78
2023/03/02 11:03:19;;;;;;;85.88;50.83;;;5.20;49.00;;;;;;4951647;28;114799;-80
2023/03/02 11:05:47;;;;;;;85.28;48.15;;;5.20;48.70;;;;;;4970925;28;114780;-80
2023/03/02 11:08:23;;;;;;;79.72;48.10;;;5.10;48.70;;;;;;4947578;28;114397;-80
2023/03/02 11:10:56;;;;;;;77.72;44.40;;;5.20;48.60;;;;;;4930252;28;121751;-79
2023/03/02 11:13:36;;;;;;;71.03;40.85;;;5.20;48.60;;;;;;4963146;28;114795;-79
2023/03/02 11:16:27;;;;;;;71.50;41.22;;;5.40;48.40;;;;;;4980899;28;114649;-79
2023/03/02 11:19:01;;;;;;;67.15;40.72;;;5.40;48.10;;;;;;4934320;28;114673;-79
2023/03/02 11:21:42;;;;;;;66.55;40.08;;;5.40;47.70;;;;;;4930930;28;115177;-79
2023/03/02 11:24:36;;;;;;;61.03;37.47;;;5.40;47.60;;;;;;4963373;28;114746;-79
2023/03/02 11:27:10;;;;;;;56.90;34.10;;;5.40;48.10;;;;;;4963001;28;114581;-79
2023/03/02 11:29:41;;;;;;;53.95;33.10;;;5.60;47.40;;;;;;4962765;28;116129;-79
2023/03/02 11:32:29;;;;;;;53.30;32.78;;;5.60;47.50;;;;;;4947986;28;116195;-79
2023/03/02 11:35:09;;;;;;;48.60;30.67;;;5.70;46.90;;;;;;4965288;28;114757;-80
2023/03/02 11:37:54;;;;;;;51.22;30.58;;;5.60;46.90;;;;;;4934989;28;114722;-80
2023/03/02 11:40:57;;;;;;;52.20;31.23;;;5.70;46.70;;;;;;4966276;28;114499;-79
2023/03/02 11:43:25;;;;;;;50.60;30.73;;;5.70;46.90;;;;;;4953974;28;116137;-79
2023/03/02 11:46:04;;;;;;;48.13;29.38;;;5.80;46.80;;;;;;4984075;28;115945;-81
2023/03/02 11:48:50;;;;;;;48.35;29.00;;;5.80;46.40;;;;;;4940307;28;117815;-79
2023/03/02 11:51:32;;;;;;;46.17;29.88;;;5.90;46.70;;;;;;4967738;28;114621;-78
2023/03/02 11:54:12;;;;;;;60.53;35.80;;;6.00;46.40;;;;;;4948841;28;115237;-80
2023/03/02 11:56:40;;;;;;;49.67;31.20;;;6.10;46.70;;;;;;4950680;28;114745;-78
2023/03/02 11:59:14;;;;;;;51.83;29.85;;;6.20;46.50;;;;;;4985690;28;114586;-79
2023/03/02 12:01:46;;;;;;;47.83;29.27;;;6.20;46.10;;;;;;4986879;28;116845;-80
2023/03/02 12:04:37;;;;;;;44.97;28.95;;;6.30;46.30;;;;;;4953339;28;117768;-80
2023/03/02 12:07:24;;;;;;;33.22;19.73;;;6.50;46.10;;;;;;4988809;28;116546;-80
2023/03/02 12:10:02;;;;;;;28.23;19.50;;;6.60;45.20;;;;;;4991321;28;114521;-80
2023/03/02 12:12:35;;;;;;;26.40;16.35;;;6.60;45.10;;;;;;5004038;28;114950;-81
2023/03/02 12:15:22;;;;;;;30.38;17.92;;;6.60;44.50;;;;;;4991437;28;115443;-79
2023/03/02 12:17:53;;;;;;;30.30;20.17;;;6.70;44.70;;;;;;4980281;28;114627;-79
2023/03/02 12:20:23;;;;;;;33.97;22.35;;;6.70;44.80;;;;;;4973371;28;114695;-80
2023/03/02 12:22:50;;;;;;;33.80;22.00;;;6.70;44.80;;;;;;5006067;28;114443;-80
2023/03/02 12:25:17;;;;;;;36.47;23.38;;;6.70;45.00;;;;;;5005133;28;115125;-80
2023/03/02 12:27:52;;;;;;;38.75;23.45;;;6.80;44.90;;;;;;5023978;28;117317;-80
2023/03/02 12:30:26;;;;;;;38.95;23.30;;;6.80;44.80;;;;;;5025145;28;114684;-80
2023/03/02 12:33:09;;;;;;;35.03;21.63;;;6.90;44.70;;;;;;5006588;28;114659;-81
2023/03/02 12:35:36;;;;;;;38.45;21.85;;;6.90;44.60;;;;;;5024413;28;115206;-80
2023/03/02 12:38:30;;;;;;;39.28;24.02;;;6.90;44.70;;;;;;5022724;28;115290;-79
2023/03/02 12:41:31;;;;;;;37.10;23.33;;;7.00;44.60;;;;;;5005307;28;114540;-79
2023/03/02 12:44:36;;;;;;;34.05;21.38;;;6.90;44.70;;;;;;5004686;28;114549;-81